sensor_id;sensor_type;location;lat;lon;timestamp;P1;durP1;ratioP1;P2;durP2;ratioP2
19107;SDS011;9686;48.832;9.126;2022-08-05T00:01:12;3.13;;;2.83;;
19107;SDS011;9686;48.832;9.126;2022-08-05T00:03:38;2.97;;;2.70;;
19107;SDS011;9686;48.832;9.126;2022-08-05T00:06:03;4.20;;;2.97;;
19107;SDS011;9686;48.832;9.126;2022-08-05T00:08:29;2.93;;;2.73;;
19107;SDS011;9686;48.832;9.126;2022-08-05T00:10:54;4.23;;;3.00;;
19107;SDS011;9686;48.832;9.126;2022-08-05T00:13:19;3.50;;;3.10;;
19107;SDS011;9686;48.832;9.126;2022-08-05T00:15:45;3.23;;;2.93;;
19107;SDS011;9686;48.832;9.126;2022-08-05T00:18:10;6.03;;;3.10;;
19107;SDS011;9686;48.832;9.126;2022-08-05T00:20:36;3.13;;;2.77;;
19107;SDS011;9686;48.832;9.126;2022-08-05T00:23:01;3.13;;;2.77;;
19107;SDS011;9686;48.832;9.126;2022-08-05T00:25:26;4.00;;;3.13;;
19107;SDS011;9686;48.832;9.126;2022-08-05T00:27:52;3.63;;;2.87;;
19107;SDS011;9686;48.832;9.126;2022-08-05T00:30:17;4.77;;;3.10;;
19107;SDS011;9686;48.832;9.126;2022-08-05T00:32:43;4.13;;;3.20;;
19107;SDS011;9686;48.832;9.126;2022-08-05T00:35:08;3.70;;;3.30;;
19107;SDS011;9686;48.832;9.126;2022-08-05T00:37:33;5.50;;;3.40;;
19107;SDS011;9686;48.832;9.126;2022-08-05T00:39:59;5.00;;;3.57;;
19107;SDS011;9686;48.832;9.126;2022-08-05T00:42:28;3.47;;;2.80;;
19107;SDS011;9686;48.832;9.126;2022-08-05T00:44:57;4.27;;;3.30;;
19107;SDS011;9686;48.832;9.126;2022-08-05T00:47:23;4.90;;;3.57;;
19107;SDS011;9686;48.832;9.126;2022-08-05T00:49:48;3.47;;;3.17;;
19107;SDS011;9686;48.832;9.126;2022-08-05T00:52:14;7.23;;;3.27;;
19107;SDS011;9686;48.832;9.126;2022-08-05T00:54:39;3.67;;;2.87;;
19107;SDS011;9686;48.832;9.126;2022-08-05T00:57:04;2.80;;;2.50;;
19107;SDS011;9686;48.832;9.126;2022-08-05T00:59:30;2.77;;;2.30;;
19107;SDS011;9686;48.832;9.126;2022-08-05T01:01:55;4.50;;;2.10;;
19107;SDS011;9686;48.832;9.126;2022-08-05T01:04:20;2.20;;;2.00;;
19107;SDS011;9686;48.832;9.126;2022-08-05T01:06:46;4.60;;;1.93;;
19107;SDS011;9686;48.832;9.126;2022-08-05T01:09:12;8.77;;;1.97;;
19107;SDS011;9686;48.832;9.126;2022-08-05T01:11:38;5.63;;;2.37;;
19107;SDS011;9686;48.832;9.126;2022-08-05T01:14:08;2.73;;;2.00;;
19107;SDS011;9686;48.832;9.126;2022-08-05T01:16:40;4.17;;;2.40;;
19107;SDS011;9686;48.832;9.126;2022-08-05T01:21:53;3.97;;;2.17;;
19107;SDS011;9686;48.832;9.126;2022-08-05T01:24:46;6.67;;;2.03;;
19107;SDS011;9686;48.832;9.126;2022-08-05T01:30:23;2.93;;;2.20;;
19107;SDS011;9686;48.832;9.126;2022-08-05T01:32:52;9.77;;;2.33;;
19107;SDS011;9686;48.832;9.126;2022-08-05T01:35:22;3.13;;;1.97;;
19107;SDS011;9686;48.832;9.126;2022-08-05T01:37:52;4.87;;;2.13;;
19107;SDS011;9686;48.832;9.126;2022-08-05T01:40:20;3.03;;;2.00;;
19107;SDS011;9686;48.832;9.126;2022-08-05T01:42:50;6.70;;;2.50;;
19107;SDS011;9686;48.832;9.126;2022-08-05T01:45:18;5.90;;;2.17;;
19107;SDS011;9686;48.832;9.126;2022-08-05T01:47:45;4.70;;;1.90;;
19107;SDS011;9686;48.832;9.126;2022-08-05T01:50:19;3.83;;;1.97;;
19107;SDS011;9686;48.832;9.126;2022-08-05T01:52:49;2.60;;;2.23;;
19107;SDS011;9686;48.832;9.126;2022-08-05T01:55:19;7.70;;;2.37;;
19107;SDS011;9686;48.832;9.126;2022-08-05T01:57:46;7.40;;;2.37;;
19107;SDS011;9686;48.832;9.126;2022-08-05T02:00:14;7.47;;;2.40;;
19107;SDS011;9686;48.832;9.126;2022-08-05T02:02:42;5.40;;;2.27;;
19107;SDS011;9686;48.832;9.126;2022-08-05T02:05:22;5.30;;;2.30;;
19107;SDS011;9686;48.832;9.126;2022-08-05T02:07:52;4.07;;;2.33;;
19107;SDS011;9686;48.832;9.126;2022-08-05T02:10:18;6.70;;;2.37;;
19107;SDS011;9686;48.832;9.126;2022-08-05T02:12:50;2.73;;;2.27;;
19107;SDS011;9686;48.832;9.126;2022-08-05T02:15:26;3.33;;;1.90;;
19107;SDS011;9686;48.832;9.126;2022-08-05T02:18:14;4.97;;;2.30;;
19107;SDS011;9686;48.832;9.126;2022-08-05T02:20:51;4.33;;;1.83;;
19107;SDS011;9686;48.832;9.126;2022-08-05T02:23:20;5.93;;;2.40;;
19107;SDS011;9686;48.832;9.126;2022-08-05T02:25:50;4.57;;;2.10;;
19107;SDS011;9686;48.832;9.126;2022-08-05T02:28:22;3.60;;;2.30;;
19107;SDS011;9686;48.832;9.126;2022-08-05T02:30:52;6.50;;;3.23;;
19107;SDS011;9686;48.832;9.126;2022-08-05T02:33:21;5.27;;;2.00;;
19107;SDS011;9686;48.832;9.126;2022-08-05T02:35:48;8.40;;;2.17;;
19107;SDS011;9686;48.832;9.126;2022-08-05T02:38:14;5.03;;;2.17;;
19107;SDS011;9686;48.832;9.126;2022-08-05T02:40:41;5.33;;;2.17;;
19107;SDS011;9686;48.832;9.126;2022-08-05T02:43:09;4.83;;;2.20;;
19107;SDS011;9686;48.832;9.126;2022-08-05T02:45:36;4.70;;;2.47;;
19107;SDS011;9686;48.832;9.126;2022-08-05T02:48:05;5.37;;;2.20;;
19107;SDS011;9686;48.832;9.126;2022-08-05T02:50:32;3.27;;;2.50;;
19107;SDS011;9686;48.832;9.126;2022-08-05T02:52:59;6.70;;;2.37;;
19107;SDS011;9686;48.832;9.126;2022-08-05T02:55:25;9.93;;;2.40;;
19107;SDS011;9686;48.832;9.126;2022-08-05T02:57:52;6.33;;;2.70;;
19107;SDS011;9686;48.832;9.126;2022-08-05T03:00:19;6.03;;;2.20;;
19107;SDS011;9686;48.832;9.126;2022-08-05T03:02:44;7.10;;;2.20;;
19107;SDS011;9686;48.832;9.126;2022-08-05T03:05:11;4.03;;;2.30;;
19107;SDS011;9686;48.832;9.126;2022-08-05T03:07:39;4.03;;;2.53;;
19107;SDS011;9686;48.832;9.126;2022-08-05T03:10:05;8.80;;;2.30;;
19107;SDS011;9686;48.832;9.126;2022-08-05T03:12:35;3.13;;;2.37;;
19107;SDS011;9686;48.832;9.126;2022-08-05T03:15:02;5.77;;;2.60;;
19107;SDS011;9686;48.832;9.126;2022-08-05T03:17:29;10.63;;;2.70;;
19107;SDS011;9686;48.832;9.126;2022-08-05T03:19:55;4.43;;;2.60;;
19107;SDS011;9686;48.832;9.126;2022-08-05T03:22:20;3.27;;;2.43;;
19107;SDS011;9686;48.832;9.126;2022-08-05T03:24:46;5.23;;;2.60;;
19107;SDS011;9686;48.832;9.126;2022-08-05T03:27:12;4.87;;;2.50;;
19107;SDS011;9686;48.832;9.126;2022-08-05T03:29:38;5.00;;;2.50;;
19107;SDS011;9686;48.832;9.126;2022-08-05T03:32:05;7.87;;;2.50;;
19107;SDS011;9686;48.832;9.126;2022-08-05T03:34:32;4.53;;;2.27;;
19107;SDS011;9686;48.832;9.126;2022-08-05T03:36:58;5.57;;;2.63;;
19107;SDS011;9686;48.832;9.126;2022-08-05T03:39:23;5.40;;;3.07;;
19107;SDS011;9686;48.832;9.126;2022-08-05T03:41:48;2.73;;;2.30;;
19107;SDS011;9686;48.832;9.126;2022-08-05T03:44:14;4.67;;;2.63;;
19107;SDS011;9686;48.832;9.126;2022-08-05T03:46:39;3.17;;;2.20;;
19107;SDS011;9686;48.832;9.126;2022-08-05T03:49:04;6.50;;;2.63;;
19107;SDS011;9686;48.832;9.126;2022-08-05T03:52:17;5.37;;;2.93;;
19107;SDS011;9686;48.832;9.126;2022-08-05T03:54:27;5.43;;;2.63;;
19107;SDS011;9686;48.832;9.126;2022-08-05T03:57:10;3.33;;;2.90;;
19107;SDS011;9686;48.832;9.126;2022-08-05T03:59:41;4.23;;;2.50;;
19107;SDS011;9686;48.832;9.126;2022-08-05T04:02:10;4.57;;;2.43;;
19107;SDS011;9686;48.832;9.126;2022-08-05T04:04:36;5.07;;;2.37;;
19107;SDS011;9686;48.832;9.126;2022-08-05T04:07:03;3.53;;;2.83;;
19107;SDS011;9686;48.832;9.126;2022-08-05T04:09:30;3.13;;;2.43;;
19107;SDS011;9686;48.832;9.126;2022-08-05T04:11:56;5.10;;;3.10;;
19107;SDS011;9686;48.832;9.126;2022-08-05T04:14:21;5.13;;;2.57;;
19107;SDS011;9686;48.832;9.126;2022-08-05T04:16:48;6.77;;;2.70;;
19107;SDS011;9686;48.832;9.126;2022-08-05T04:19:14;3.90;;;2.70;;
19107;SDS011;9686;48.832;9.126;2022-08-05T04:21:40;3.43;;;2.50;;
19107;SDS011;9686;48.832;9.126;2022-08-05T04:24:06;6.00;;;2.47;;
19107;SDS011;9686;48.832;9.126;2022-08-05T04:26:32;6.20;;;2.80;;
19107;SDS011;9686;48.832;9.126;2022-08-05T04:28:58;4.43;;;2.80;;
19107;SDS011;9686;48.832;9.126;2022-08-05T04:31:23;7.53;;;2.73;;
19107;SDS011;9686;48.832;9.126;2022-08-05T04:33:49;7.30;;;3.53;;
19107;SDS011;9686;48.832;9.126;2022-08-05T04:36:14;3.97;;;2.83;;
19107;SDS011;9686;48.832;9.126;2022-08-05T04:38:43;6.57;;;3.07;;
19107;SDS011;9686;48.832;9.126;2022-08-05T04:41:08;7.77;;;3.03;;
19107;SDS011;9686;48.832;9.126;2022-08-05T04:43:34;4.57;;;2.70;;
19107;SDS011;9686;48.832;9.126;2022-08-05T04:45:59;4.27;;;3.03;;
19107;SDS011;9686;48.832;9.126;2022-08-05T04:48:25;4.83;;;2.70;;
19107;SDS011;9686;48.832;9.126;2022-08-05T04:50:50;3.30;;;2.97;;
19107;SDS011;9686;48.832;9.126;2022-08-05T04:53:16;4.47;;;2.57;;
19107;SDS011;9686;48.832;9.126;2022-08-05T04:55:43;6.80;;;3.43;;
19107;SDS011;9686;48.832;9.126;2022-08-05T04:58:10;7.20;;;3.10;;
19107;SDS011;9686;48.832;9.126;2022-08-05T05:00:37;4.73;;;2.80;;
19107;SDS011;9686;48.832;9.126;2022-08-05T05:03:03;7.70;;;3.10;;
19107;SDS011;9686;48.832;9.126;2022-08-05T05:05:29;5.73;;;2.87;;
19107;SDS011;9686;48.832;9.126;2022-08-05T05:08:04;6.97;;;3.00;;
19107;SDS011;9686;48.832;9.126;2022-08-05T05:10:36;6.93;;;2.77;;
19107;SDS011;9686;48.832;9.126;2022-08-05T05:13:03;7.50;;;3.03;;
19107;SDS011;9686;48.832;9.126;2022-08-05T05:15:28;4.17;;;2.97;;
19107;SDS011;9686;48.832;9.126;2022-08-05T05:17:53;4.90;;;2.90;;
19107;SDS011;9686;48.832;9.126;2022-08-05T05:20:19;11.23;;;3.50;;
19107;SDS011;9686;48.832;9.126;2022-08-05T05:22:44;4.70;;;3.27;;
19107;SDS011;9686;48.832;9.126;2022-08-05T05:25:10;7.00;;;2.97;;
19107;SDS011;9686;48.832;9.126;2022-08-05T05:27:36;5.60;;;2.90;;
19107;SDS011;9686;48.832;9.126;2022-08-05T05:30:02;6.30;;;3.20;;
19107;SDS011;9686;48.832;9.126;2022-08-05T05:32:28;8.33;;;3.20;;
19107;SDS011;9686;48.832;9.126;2022-08-05T05:34:53;7.03;;;3.30;;
19107;SDS011;9686;48.832;9.126;2022-08-05T05:37:18;6.93;;;3.20;;
19107;SDS011;9686;48.832;9.126;2022-08-05T05:39:44;7.13;;;3.30;;
19107;SDS011;9686;48.832;9.126;2022-08-05T05:42:09;9.53;;;3.40;;
19107;SDS011;9686;48.832;9.126;2022-08-05T05:44:34;5.80;;;3.60;;
19107;SDS011;9686;48.832;9.126;2022-08-05T05:47:00;6.83;;;3.30;;
19107;SDS011;9686;48.832;9.126;2022-08-05T05:49:26;9.83;;;3.33;;
19107;SDS011;9686;48.832;9.126;2022-08-05T05:51:52;6.93;;;3.77;;
19107;SDS011;9686;48.832;9.126;2022-08-05T05:54:17;8.53;;;3.90;;
19107;SDS011;9686;48.832;9.126;2022-08-05T05:56:43;6.27;;;3.47;;
19107;SDS011;9686;48.832;9.126;2022-08-05T05:59:08;5.03;;;3.60;;
19107;SDS011;9686;48.832;9.126;2022-08-05T06:01:34;5.63;;;3.30;;
19107;SDS011;9686;48.832;9.126;2022-08-05T06:04:01;6.97;;;3.40;;
19107;SDS011;9686;48.832;9.126;2022-08-05T06:06:26;7.33;;;3.63;;
19107;SDS011;9686;48.832;9.126;2022-08-05T06:08:52;6.07;;;3.17;;
19107;SDS011;9686;48.832;9.126;2022-08-05T06:11:17;3.67;;;3.13;;
19107;SDS011;9686;48.832;9.126;2022-08-05T06:13:42;5.30;;;3.40;;
19107;SDS011;9686;48.832;9.126;2022-08-05T06:16:08;4.83;;;3.20;;
19107;SDS011;9686;48.832;9.126;2022-08-05T06:18:33;5.20;;;3.50;;
19107;SDS011;9686;48.832;9.126;2022-08-05T06:20:58;4.50;;;3.40;;
19107;SDS011;9686;48.832;9.126;2022-08-05T06:23:24;5.37;;;3.50;;
19107;SDS011;9686;48.832;9.126;2022-08-05T06:25:49;5.50;;;3.40;;
19107;SDS011;9686;48.832;9.126;2022-08-05T06:28:15;5.17;;;3.13;;
19107;SDS011;9686;48.832;9.126;2022-08-05T06:30:40;6.60;;;3.47;;
19107;SDS011;9686;48.832;9.126;2022-08-05T06:33:06;3.83;;;2.73;;
19107;SDS011;9686;48.832;9.126;2022-08-05T06:35:32;5.00;;;2.70;;
19107;SDS011;9686;48.832;9.126;2022-08-05T06:37:57;4.60;;;2.70;;
19107;SDS011;9686;48.832;9.126;2022-08-05T06:40:22;5.30;;;3.33;;
19107;SDS011;9686;48.832;9.126;2022-08-05T06:42:48;3.43;;;2.83;;
19107;SDS011;9686;48.832;9.126;2022-08-05T06:45:15;3.97;;;2.73;;
19107;SDS011;9686;48.832;9.126;2022-08-05T06:47:40;4.77;;;2.63;;
19107;SDS011;9686;48.832;9.126;2022-08-05T06:50:05;5.67;;;2.87;;
19107;SDS011;9686;48.832;9.126;2022-08-05T06:52:31;3.67;;;2.50;;
19107;SDS011;9686;48.832;9.126;2022-08-05T06:55:02;3.50;;;2.43;;
19107;SDS011;9686;48.832;9.126;2022-08-05T06:57:28;8.37;;;3.00;;
19107;SDS011;9686;48.832;9.126;2022-08-05T06:59:54;4.43;;;2.70;;
19107;SDS011;9686;48.832;9.126;2022-08-05T07:02:19;5.77;;;3.10;;
19107;SDS011;9686;48.832;9.126;2022-08-05T07:04:44;3.37;;;2.40;;
19107;SDS011;9686;48.832;9.126;2022-08-05T07:07:10;3.17;;;2.87;;
19107;SDS011;9686;48.832;9.126;2022-08-05T07:09:35;6.07;;;3.10;;
19107;SDS011;9686;48.832;9.126;2022-08-05T07:12:00;5.33;;;2.60;;
19107;SDS011;9686;48.832;9.126;2022-08-05T07:14:26;4.23;;;2.80;;
19107;SDS011;9686;48.832;9.126;2022-08-05T07:17:09;4.33;;;2.80;;
19107;SDS011;9686;48.832;9.126;2022-08-05T07:19:35;4.50;;;3.00;;
19107;SDS011;9686;48.832;9.126;2022-08-05T07:22:00;7.50;;;2.83;;
19107;SDS011;9686;48.832;9.126;2022-08-05T07:24:26;6.87;;;2.70;;
19107;SDS011;9686;48.832;9.126;2022-08-05T07:26:51;5.33;;;2.70;;
19107;SDS011;9686;48.832;9.126;2022-08-05T07:29:17;5.13;;;2.63;;
19107;SDS011;9686;48.832;9.126;2022-08-05T07:31:42;4.17;;;2.50;;
19107;SDS011;9686;48.832;9.126;2022-08-05T07:34:08;5.25;;;2.53;;
19107;SDS011;9686;48.832;9.126;2022-08-05T07:36:34;4.23;;;2.67;;
19107;SDS011;9686;48.832;9.126;2022-08-05T07:39:00;3.60;;;2.60;;
19107;SDS011;9686;48.832;9.126;2022-08-05T07:41:27;5.07;;;2.50;;
19107;SDS011;9686;48.832;9.126;2022-08-05T07:43:53;3.30;;;2.35;;
19107;SDS011;9686;48.832;9.126;2022-08-05T07:46:19;2.20;;;2.08;;
19107;SDS011;9686;48.832;9.126;2022-08-05T07:48:45;5.63;;;2.60;;
19107;SDS011;9686;48.832;9.126;2022-08-05T07:51:13;3.38;;;2.58;;
19107;SDS011;9686;48.832;9.126;2022-08-05T07:53:40;3.10;;;2.40;;
19107;SDS011;9686;48.832;9.126;2022-08-05T07:56:06;4.53;;;2.45;;
19107;SDS011;9686;48.832;9.126;2022-08-05T07:58:31;5.03;;;2.28;;
19107;SDS011;9686;48.832;9.126;2022-08-05T08:00:56;2.17;;;1.90;;
19107;SDS011;9686;48.832;9.126;2022-08-05T08:03:22;3.42;;;1.90;;
19107;SDS011;9686;48.832;9.126;2022-08-05T08:05:48;3.28;;;1.90;;
19107;SDS011;9686;48.832;9.126;2022-08-05T08:08:16;5.88;;;2.25;;
19107;SDS011;9686;48.832;9.126;2022-08-05T08:10:42;5.13;;;1.65;;
19107;SDS011;9686;48.832;9.126;2022-08-05T08:13:07;2.70;;;1.83;;
19107;SDS011;9686;48.832;9.126;2022-08-05T08:15:32;1.80;;;1.70;;
19107;SDS011;9686;48.832;9.126;2022-08-05T08:17:58;2.03;;;1.83;;
19107;SDS011;9686;48.832;9.126;2022-08-05T08:20:24;4.90;;;1.58;;
19107;SDS011;9686;48.832;9.126;2022-08-05T08:22:53;2.00;;;1.70;;
19107;SDS011;9686;48.832;9.126;2022-08-05T08:25:21;3.17;;;1.63;;
19107;SDS011;9686;48.832;9.126;2022-08-05T08:27:47;2.10;;;1.80;;
19107;SDS011;9686;48.832;9.126;2022-08-05T08:30:12;2.35;;;1.90;;
19107;SDS011;9686;48.832;9.126;2022-08-05T08:32:38;2.45;;;1.95;;
19107;SDS011;9686;48.832;9.126;2022-08-05T08:35:04;2.40;;;2.00;;
19107;SDS011;9686;48.832;9.126;2022-08-05T08:37:30;4.63;;;1.98;;
19107;SDS011;9686;48.832;9.126;2022-08-05T08:39:55;3.17;;;1.70;;
19107;SDS011;9686;48.832;9.126;2022-08-05T08:42:21;1.50;;;1.40;;
19107;SDS011;9686;48.832;9.126;2022-08-05T08:44:47;2.28;;;1.60;;
19107;SDS011;9686;48.832;9.126;2022-08-05T08:47:13;2.33;;;1.70;;
19107;SDS011;9686;48.832;9.126;2022-08-05T08:49:42;2.40;;;2.00;;
19107;SDS011;9686;48.832;9.126;2022-08-05T08:52:12;2.53;;;1.80;;
19107;SDS011;9686;48.832;9.126;2022-08-05T08:54:41;2.25;;;1.83;;
19107;SDS011;9686;48.832;9.126;2022-08-05T08:57:08;3.20;;;1.92;;
19107;SDS011;9686;48.832;9.126;2022-08-05T08:59:35;2.53;;;1.80;;
19107;SDS011;9686;48.832;9.126;2022-08-05T09:02:03;1.88;;;1.50;;
19107;SDS011;9686;48.832;9.126;2022-08-05T09:04:30;3.80;;;1.65;;
19107;SDS011;9686;48.832;9.126;2022-08-05T09:07:00;6.20;;;2.00;;
19107;SDS011;9686;48.832;9.126;2022-08-05T09:09:26;2.50;;;1.80;;
19107;SDS011;9686;48.832;9.126;2022-08-05T09:11:51;2.05;;;1.85;;
19107;SDS011;9686;48.832;9.126;2022-08-05T09:14:17;2.00;;;1.60;;
19107;SDS011;9686;48.832;9.126;2022-08-05T09:16:43;2.10;;;1.70;;
19107;SDS011;9686;48.832;9.126;2022-08-05T09:19:08;2.53;;;1.85;;
19107;SDS011;9686;48.832;9.126;2022-08-05T09:21:34;3.33;;;1.48;;
19107;SDS011;9686;48.832;9.126;2022-08-05T09:24:03;4.50;;;1.77;;
19107;SDS011;9686;48.832;9.126;2022-08-05T09:26:32;2.40;;;1.60;;
19107;SDS011;9686;48.832;9.126;2022-08-05T09:29:00;3.20;;;1.50;;
19107;SDS011;9686;48.832;9.126;2022-08-05T09:31:30;2.55;;;1.50;;
19107;SDS011;9686;48.832;9.126;2022-08-05T09:33:57;3.70;;;1.58;;
19107;SDS011;9686;48.832;9.126;2022-08-05T09:36:25;1.90;;;1.63;;
19107;SDS011;9686;48.832;9.126;2022-08-05T09:39:04;1.60;;;1.50;;
19107;SDS011;9686;48.832;9.126;2022-08-05T09:41:53;1.65;;;1.55;;
19107;SDS011;9686;48.832;9.126;2022-08-05T09:44:32;1.50;;;1.40;;
19107;SDS011;9686;48.832;9.126;2022-08-05T09:47:08;2.88;;;1.58;;
19107;SDS011;9686;48.832;9.126;2022-08-05T09:49:39;2.28;;;1.55;;
19107;SDS011;9686;48.832;9.126;2022-08-05T09:52:24;1.55;;;1.38;;
19107;SDS011;9686;48.832;9.126;2022-08-05T09:54:55;1.70;;;1.60;;
19107;SDS011;9686;48.832;9.126;2022-08-05T09:57:39;2.65;;;1.40;;
19107;SDS011;9686;48.832;9.126;2022-08-05T10:02:42;1.60;;;1.50;;
19107;SDS011;9686;48.832;9.126;2022-08-05T10:05:12;1.60;;;1.50;;
19107;SDS011;9686;48.832;9.126;2022-08-05T10:08:01;2.03;;;1.63;;
19107;SDS011;9686;48.832;9.126;2022-08-05T10:10:44;2.60;;;1.75;;
19107;SDS011;9686;48.832;9.126;2022-08-05T10:13:12;2.90;;;1.90;;
19107;SDS011;9686;48.832;9.126;2022-08-05T10:15:50;2.67;;;1.60;;
19107;SDS011;9686;48.832;9.126;2022-08-05T10:18:17;1.90;;;1.60;;
19107;SDS011;9686;48.832;9.126;2022-08-05T10:20:55;2.65;;;1.48;;
19107;SDS011;9686;48.832;9.126;2022-08-05T10:23:23;1.50;;;1.40;;
19107;SDS011;9686;48.832;9.126;2022-08-05T10:25:56;3.55;;;1.60;;
19107;SDS011;9686;48.832;9.126;2022-08-05T10:28:25;3.80;;;1.50;;
19107;SDS011;9686;48.832;9.126;2022-08-05T10:30:51;2.20;;;1.50;;
19107;SDS011;9686;48.832;9.126;2022-08-05T10:33:18;2.72;;;1.92;;
19107;SDS011;9686;48.832;9.126;2022-08-05T10:35:47;2.13;;;1.60;;
19107;SDS011;9686;48.832;9.126;2022-08-05T10:38:14;3.17;;;1.77;;
19107;SDS011;9686;48.832;9.126;2022-08-05T10:43:21;3.70;;;1.65;;
19107;SDS011;9686;48.832;9.126;2022-08-05T10:45:56;1.48;;;1.35;;
19107;SDS011;9686;48.832;9.126;2022-08-05T10:48:37;4.10;;;1.75;;
19107;SDS011;9686;48.832;9.126;2022-08-05T10:51:07;1.75;;;1.40;;
19107;SDS011;9686;48.832;9.126;2022-08-05T10:53:36;1.50;;;1.40;;
19107;SDS011;9686;48.832;9.126;2022-08-05T10:56:21;1.90;;;1.80;;
19107;SDS011;9686;48.832;9.126;2022-08-05T10:58:49;1.60;;;1.48;;
19107;SDS011;9686;48.832;9.126;2022-08-05T11:01:35;4.50;;;1.50;;
19107;SDS011;9686;48.832;9.126;2022-08-05T11:06:33;2.67;;;1.30;;
19107;SDS011;9686;48.832;9.126;2022-08-05T11:09:20;2.08;;;1.60;;
19107;SDS011;9686;48.832;9.126;2022-08-05T11:11:49;1.70;;;1.48;;
19107;SDS011;9686;48.832;9.126;2022-08-05T11:14:26;2.33;;;1.63;;
19107;SDS011;9686;48.832;9.126;2022-08-05T11:20:01;2.85;;;1.48;;
19107;SDS011;9686;48.832;9.126;2022-08-05T11:22:41;1.90;;;1.70;;
19107;SDS011;9686;48.832;9.126;2022-08-05T11:28:32;2.10;;;1.90;;
19107;SDS011;9686;48.832;9.126;2022-08-05T11:33:29;1.88;;;1.52;;
19107;SDS011;9686;48.832;9.126;2022-08-05T11:35:55;2.63;;;1.70;;
19107;SDS011;9686;48.832;9.126;2022-08-05T11:41:06;6.25;;;1.73;;
19107;SDS011;9686;48.832;9.126;2022-08-05T11:43:59;2.60;;;1.80;;
19107;SDS011;9686;48.832;9.126;2022-08-05T11:46:35;1.90;;;1.77;;
19107;SDS011;9686;48.832;9.126;2022-08-05T11:49:04;5.28;;;1.80;;
19107;SDS011;9686;48.832;9.126;2022-08-05T11:51:30;2.33;;;1.38;;
19107;SDS011;9686;48.832;9.126;2022-08-05T11:53:56;2.40;;;1.88;;
19107;SDS011;9686;48.832;9.126;2022-08-05T11:56:22;1.92;;;1.60;;
19107;SDS011;9686;48.832;9.126;2022-08-05T11:58:48;1.98;;;1.50;;
19107;SDS011;9686;48.832;9.126;2022-08-05T12:01:16;3.08;;;1.58;;
19107;SDS011;9686;48.832;9.126;2022-08-05T12:03:47;2.63;;;1.60;;
19107;SDS011;9686;48.832;9.126;2022-08-05T12:06:16;1.85;;;1.52;;
19107;SDS011;9686;48.832;9.126;2022-08-05T12:08:47;1.73;;;1.63;;
19107;SDS011;9686;48.832;9.126;2022-08-05T12:11:23;2.40;;;1.73;;
19107;SDS011;9686;48.832;9.126;2022-08-05T12:13:59;1.75;;;1.60;;
19107;SDS011;9686;48.832;9.126;2022-08-05T12:16:39;1.80;;;1.70;;
19107;SDS011;9686;48.832;9.126;2022-08-05T12:19:06;2.78;;;1.50;;
19107;SDS011;9686;48.832;9.126;2022-08-05T12:21:40;2.25;;;1.90;;
19107;SDS011;9686;48.832;9.126;2022-08-05T12:24:11;2.63;;;1.63;;
19107;SDS011;9686;48.832;9.126;2022-08-05T12:26:46;6.07;;;1.85;;
19107;SDS011;9686;48.832;9.126;2022-08-05T12:29:17;1.63;;;1.52;;
19107;SDS011;9686;48.832;9.126;2022-08-05T12:31:51;2.33;;;1.63;;
19107;SDS011;9686;48.832;9.126;2022-08-05T12:34:28;1.65;;;1.55;;
19107;SDS011;9686;48.832;9.126;2022-08-05T12:36:56;3.17;;;1.80;;
19107;SDS011;9686;48.832;9.126;2022-08-05T12:39:24;3.17;;;1.75;;
19107;SDS011;9686;48.832;9.126;2022-08-05T12:41:50;2.55;;;1.88;;
19107;SDS011;9686;48.832;9.126;2022-08-05T12:44:21;2.05;;;1.85;;
19107;SDS011;9686;48.832;9.126;2022-08-05T12:46:50;2.80;;;2.00;;
19107;SDS011;9686;48.832;9.126;2022-08-05T12:49:17;2.10;;;1.90;;
19107;SDS011;9686;48.832;9.126;2022-08-05T12:55:20;3.10;;;1.70;;
19107;SDS011;9686;48.832;9.126;2022-08-05T12:57:47;3.60;;;1.70;;
19107;SDS011;9686;48.832;9.126;2022-08-05T13:00:19;2.78;;;1.70;;
19107;SDS011;9686;48.832;9.126;2022-08-05T13:02:46;4.97;;;1.90;;
19107;SDS011;9686;48.832;9.126;2022-08-05T13:05:11;1.77;;;1.63;;
19107;SDS011;9686;48.832;9.126;2022-08-05T13:07:38;1.95;;;1.83;;
19107;SDS011;9686;48.832;9.126;2022-08-05T13:10:09;2.13;;;1.48;;
19107;SDS011;9686;48.832;9.126;2022-08-05T13:12:38;3.17;;;1.83;;
19107;SDS011;9686;48.832;9.126;2022-08-05T13:15:05;1.92;;;1.70;;
19107;SDS011;9686;48.832;9.126;2022-08-05T13:17:35;2.42;;;1.90;;
19107;SDS011;9686;48.832;9.126;2022-08-05T13:22:40;3.10;;;1.63;;
19107;SDS011;9686;48.832;9.126;2022-08-05T13:25:10;2.60;;;1.73;;
19107;SDS011;9686;48.832;9.126;2022-08-05T13:27:40;3.08;;;1.58;;
19107;SDS011;9686;48.832;9.126;2022-08-05T13:30:11;8.98;;;7.47;;
19107;SDS011;9686;48.832;9.126;2022-08-05T13:32:38;2.88;;;2.60;;
19107;SDS011;9686;48.832;9.126;2022-08-05T13:35:04;3.03;;;1.80;;
19107;SDS011;9686;48.832;9.126;2022-08-05T13:37:30;4.35;;;2.08;;
19107;SDS011;9686;48.832;9.126;2022-08-05T13:39:56;3.17;;;1.95;;
19107;SDS011;9686;48.832;9.126;2022-08-05T13:42:22;3.15;;;1.80;;
19107;SDS011;9686;48.832;9.126;2022-08-05T13:44:51;3.65;;;2.13;;
19107;SDS011;9686;48.832;9.126;2022-08-05T13:47:21;4.03;;;1.75;;
19107;SDS011;9686;48.832;9.126;2022-08-05T13:49:47;2.00;;;1.80;;
19107;SDS011;9686;48.832;9.126;2022-08-05T13:52:20;2.92;;;1.85;;
19107;SDS011;9686;48.832;9.126;2022-08-05T13:54:47;2.53;;;1.80;;
19107;SDS011;9686;48.832;9.126;2022-08-05T13:57:13;1.80;;;1.70;;
19107;SDS011;9686;48.832;9.126;2022-08-05T13:59:39;2.47;;;1.98;;
19107;SDS011;9686;48.832;9.126;2022-08-05T14:02:07;2.22;;;1.70;;
19107;SDS011;9686;48.832;9.126;2022-08-05T14:04:34;3.83;;;2.10;;
19107;SDS011;9686;48.832;9.126;2022-08-05T14:07:24;2.90;;;1.83;;
19107;SDS011;9686;48.832;9.126;2022-08-05T14:09:54;3.97;;;2.22;;
19107;SDS011;9686;48.832;9.126;2022-08-05T14:12:20;1.95;;;1.70;;
19107;SDS011;9686;48.832;9.126;2022-08-05T14:14:46;3.17;;;2.00;;
19107;SDS011;9686;48.832;9.126;2022-08-05T14:17:12;2.90;;;1.80;;
19107;SDS011;9686;48.832;9.126;2022-08-05T14:19:39;3.20;;;1.60;;
19107;SDS011;9686;48.832;9.126;2022-08-05T14:22:04;2.38;;;1.83;;
19107;SDS011;9686;48.832;9.126;2022-08-05T14:24:30;2.42;;;1.88;;
19107;SDS011;9686;48.832;9.126;2022-08-05T14:26:55;3.35;;;1.77;;
19107;SDS011;9686;48.832;9.126;2022-08-05T14:29:20;2.45;;;2.00;;
19107;SDS011;9686;48.832;9.126;2022-08-05T14:31:46;1.95;;;1.65;;
19107;SDS011;9686;48.832;9.126;2022-08-05T14:34:11;1.70;;;1.60;;
19107;SDS011;9686;48.832;9.126;2022-08-05T14:36:37;3.83;;;1.58;;
19107;SDS011;9686;48.832;9.126;2022-08-05T14:39:02;4.82;;;1.90;;
19107;SDS011;9686;48.832;9.126;2022-08-05T14:41:29;4.30;;;1.65;;
19107;SDS011;9686;48.832;9.126;2022-08-05T14:43:55;4.18;;;2.00;;
19107;SDS011;9686;48.832;9.126;2022-08-05T14:46:21;2.22;;;2.03;;
19107;SDS011;9686;48.832;9.126;2022-08-05T14:48:47;2.15;;;1.95;;
19107;SDS011;9686;48.832;9.126;2022-08-05T14:51:12;2.63;;;2.22;;
19107;SDS011;9686;48.832;9.126;2022-08-05T14:53:38;5.30;;;2.10;;
19107;SDS011;9686;48.832;9.126;2022-08-05T14:56:03;3.55;;;2.38;;
19107;SDS011;9686;48.832;9.126;2022-08-05T14:58:29;2.78;;;2.28;;
19107;SDS011;9686;48.832;9.126;2022-08-05T15:00:54;2.58;;;2.22;;
19107;SDS011;9686;48.832;9.126;2022-08-05T15:03:19;2.33;;;2.13;;
19107;SDS011;9686;48.832;9.126;2022-08-05T15:05:45;3.20;;;2.70;;
19107;SDS011;9686;48.832;9.126;2022-08-05T15:08:10;3.15;;;1.83;;
19107;SDS011;9686;48.832;9.126;2022-08-05T15:10:35;2.88;;;2.45;;
19107;SDS011;9686;48.832;9.126;2022-08-05T15:13:01;2.47;;;2.15;;
19107;SDS011;9686;48.832;9.126;2022-08-05T15:15:27;4.53;;;2.63;;
19107;SDS011;9686;48.832;9.126;2022-08-05T15:17:53;3.35;;;2.67;;
19107;SDS011;9686;48.832;9.126;2022-08-05T15:20:18;3.60;;;2.40;;
19107;SDS011;9686;48.832;9.126;2022-08-05T15:22:43;3.08;;;2.50;;
19107;SDS011;9686;48.832;9.126;2022-08-05T15:25:09;2.33;;;2.10;;
19107;SDS011;9686;48.832;9.126;2022-08-05T15:27:34;2.92;;;2.03;;
19107;SDS011;9686;48.832;9.126;2022-08-05T15:30:00;10.82;;;2.50;;
19107;SDS011;9686;48.832;9.126;2022-08-05T15:32:25;2.40;;;2.20;;
19107;SDS011;9686;48.832;9.126;2022-08-05T15:34:51;2.90;;;2.47;;
19107;SDS011;9686;48.832;9.126;2022-08-05T15:37:16;5.50;;;2.30;;